Time;durP1;ratioP1;P1;durP2;ratioP2;P2;SDS_P1;SDS_P2;PMS_P1;PMS_P2;Temp;Humidity;BMP_temperature;BMP_pressure;BME280_temperature;BME280_humidity;BME280_pressure;Samples;Min_cycle;Max_cycle;Signal;HPM_P1;HPM_P2
2022/07/12 00:00:07;;;;;;;9.50;5.05;;;;;;;;;;7730613;23;20023;-50
2022/07/12 00:03:28;;;;;;;11.77;5.10;;;;;;;;;;7727594;23;20034;-57
2022/07/12 00:06:28;;;;;;;10.20;5.30;;;;;;;;;;7729896;23;20552;-53
2022/07/12 00:09:29;;;;;;;10.15;5.85;;;;;;;;;;7730115;23;20075;-48
2022/07/12 00:12:30;;;;;;;7.72;5.60;;;;;;;;;;7727012;23;20383;-51
2022/07/12 00:15:30;;;;;;;10.95;5.78;;;;;;;;;;7728307;23;20043;-57
2022/07/12 00:18:31;;;;;;;9.77;6.38;;;;;;;;;;7729513;23;20058;-58
2022/07/12 00:21:32;;;;;;;10.98;6.07;;;;;;;;;;7733053;23;20485;-53
2022/07/12 00:24:33;;;;;;;10.30;5.75;;;;;;;;;;7732012;23;20073;-53
2022/07/12 00:27:33;;;;;;;10.98;6.38;;;;;;;;;;7736109;23;20035;-58
2022/07/12 00:30:34;;;;;;;9.43;5.90;;;;;;;;;;7733353;23;20130;-55
2022/07/12 00:33:35;;;;;;;11.85;6.20;;;;;;;;;;7729652;23;20016;-50
2022/07/12 00:36:36;;;;;;;10.77;6.65;;;;;;;;;;7731898;23;20054;-55
2022/07/12 00:39:36;;;;;;;9.60;6.75;;;;;;;;;;7731274;23;20493;-50
2022/07/12 00:42:38;;;;;;;12.18;6.72;;;;;;;;;;7702766;23;20119;-56
2022/07/12 00:45:39;;;;;;;13.57;7.20;;;;;;;;;;7732575;23;20024;-56
2022/07/12 00:48:40;;;;;;;10.30;6.72;;;;;;;;;;7729695;23;20062;-57
2022/07/12 00:51:43;;;;;;;9.88;6.55;;;;;;;;;;7727909;23;20019;-52
2022/07/12 00:54:44;;;;;;;11.73;6.63;;;;;;;;;;7730672;23;20028;-49
2022/07/12 00:57:45;;;;;;;11.80;6.53;;;;;;;;;;7744403;23;20339;-51
2022/07/12 01:00:45;;;;;;;13.10;6.50;;;;;;;;;;7746356;23;20020;-50
2022/07/12 01:03:46;;;;;;;10.32;6.53;;;;;;;;;;7745572;23;20031;-51
2022/07/12 01:06:47;;;;;;;9.93;6.70;;;;;;;;;;7746612;23;20086;-49
2022/07/12 01:09:48;;;;;;;10.07;6.05;;;;;;;;;;7746651;23;20026;-48
2022/07/12 01:12:49;;;;;;;9.87;5.43;;;;;;;;;;7743281;23;20016;-56
2022/07/12 01:15:52;;;;;;;13.10;6.47;;;;;;;;;;7739846;23;20024;-56
2022/07/12 01:18:53;;;;;;;10.25;5.57;;;;;;;;;;7744800;23;20020;-51
2022/07/12 01:21:57;;;;;;;8.15;5.93;;;;;;;;;;7746306;23;20076;-51
2022/07/12 01:24:59;;;;;;;8.70;5.70;;;;;;;;;;7745405;23;20103;-52
2022/07/12 01:27:59;;;;;;;10.90;5.95;;;;;;;;;;7746155;23;20031;-50
2022/07/12 01:31:00;;;;;;;11.00;6.00;;;;;;;;;;7745506;23;20387;-55
2022/07/12 01:34:04;;;;;;;12.88;6.32;;;;;;;;;;7741971;23;20016;-50
2022/07/12 01:37:05;;;;;;;11.35;6.60;;;;;;;;;;7740975;23;20112;-50
2022/07/12 01:40:08;;;;;;;11.20;6.82;;;;;;;;;;7742029;23;20069;-54
2022/07/12 01:43:11;;;;;;;10.75;6.32;;;;;;;;;;7740766;23;20043;-53
2022/07/12 01:46:11;;;;;;;10.35;5.45;;;;;;;;;;7741356;23;20028;-50
2022/07/12 01:49:12;;;;;;;8.52;5.20;;;;;;;;;;7741714;23;20044;-52
2022/07/12 01:52:13;;;;;;;8.60;5.43;;;;;;;;;;7741089;23;20180;-57
2022/07/12 01:55:14;;;;;;;8.63;5.30;;;;;;;;;;7737757;23;20118;-51
2022/07/12 01:58:15;;;;;;;9.98;5.18;;;;;;;;;;7739639;23;20355;-55
2022/07/12 02:01:16;;;;;;;12.37;5.23;;;;;;;;;;7741338;23;20103;-52
2022/07/12 02:04:18;;;;;;;9.18;5.30;;;;;;;;;;7740538;23;20020;-53
2022/07/12 02:07:19;;;;;;;10.20;5.60;;;;;;;;;;7741755;23;20095;-48
2022/07/12 02:10:19;;;;;;;9.15;5.15;;;;;;;;;;7741107;23;20046;-52
2022/07/12 02:13:20;;;;;;;11.20;5.00;;;;;;;;;;7742421;23;20043;-51
2022/07/12 02:16:21;;;;;;;11.02;5.05;;;;;;;;;;7741201;23;20091;-54
2022/07/12 02:19:22;;;;;;;8.57;4.23;;;;;;;;;;7741273;23;20051;-56
2022/07/12 02:22:22;;;;;;;7.95;4.50;;;;;;;;;;7740683;23;20099;-51
2022/07/12 02:25:23;;;;;;;8.63;4.95;;;;;;;;;;7740718;23;20016;-51
2022/07/12 02:28:23;;;;;;;10.18;4.57;;;;;;;;;;7741253;23;20090;-52
2022/07/12 02:31:24;;;;;;;9.55;4.72;;;;;;;;;;7742719;23;20026;-54
2022/07/12 02:34:24;;;;;;;7.80;4.47;;;;;;;;;;7739241;23;20055;-52
2022/07/12 02:37:25;;;;;;;8.63;4.15;;;;;;;;;;7740041;23;20028;-47
2022/07/12 02:43:45;;;;;;;6.47;4.53;;;;;;;;;;7741012;23;20094;-52
2022/07/12 02:46:46;;;;;;;8.02;4.15;;;;;;;;;;7739555;23;20536;-57
2022/07/12 02:49:46;;;;;;;6.50;4.00;;;;;;;;;;7738402;23;20482;-58
2022/07/12 02:52:47;;;;;;;7.57;4.57;;;;;;;;;;7741003;23;20351;-57
2022/07/12 02:55:48;;;;;;;7.35;4.55;;;;;;;;;;7748378;23;20030;-59
2022/07/12 02:58:49;;;;;;;9.55;4.47;;;;;;;;;;7739114;23;20318;-59
2022/07/12 03:01:49;;;;;;;8.70;4.22;;;;;;;;;;7740730;23;20017;-57
2022/07/12 03:04:50;;;;;;;6.40;4.40;;;;;;;;;;7738625;23;20849;-50
2022/07/12 03:07:50;;;;;;;8.75;5.10;;;;;;;;;;7740997;23;20027;-57
2022/07/12 03:10:51;;;;;;;6.65;4.55;;;;;;;;;;7747829;23;20016;-59
2022/07/12 03:13:52;;;;;;;7.70;4.63;;;;;;;;;;7741651;23;20016;-61
2022/07/12 03:16:52;;;;;;;7.70;4.90;;;;;;;;;;7742905;23;20091;-56
2022/07/12 03:19:53;;;;;;;8.15;5.53;;;;;;;;;;7740913;23;20070;-53
2022/07/12 03:22:53;;;;;;;9.25;6.05;;;;;;;;;;7741605;23;20859;-51
2022/07/12 03:25:54;;;;;;;9.35;5.70;;;;;;;;;;7740442;23;20028;-50
2022/07/12 03:28:55;;;;;;;11.68;5.70;;;;;;;;;;7738859;23;20125;-54
2022/07/12 03:31:56;;;;;;;8.65;5.68;;;;;;;;;;7740133;23;20020;-55
2022/07/12 03:34:56;;;;;;;8.98;5.85;;;;;;;;;;7737899;23;20016;-57
2022/07/12 03:37:57;;;;;;;8.80;5.85;;;;;;;;;;7740235;23;20024;-59
2022/07/12 03:40:57;;;;;;;9.15;5.82;;;;;;;;;;7737309;23;20087;-55
2022/07/12 03:43:58;;;;;;;9.35;6.07;;;;;;;;;;7742769;23;20135;-55
2022/07/12 03:46:59;;;;;;;8.23;5.95;;;;;;;;;;7742037;23;20380;-59
2022/07/12 03:50:04;;;;;;;8.73;6.65;;;;;;;;;;7743331;23;20356;-59
2022/07/12 03:53:05;;;;;;;11.88;5.68;;;;;;;;;;7745158;23;20012;-58
2022/07/12 03:56:07;;;;;;;10.50;6.43;;;;;;;;;;7743521;23;20032;-57
2022/07/12 03:59:07;;;;;;;12.38;6.60;;;;;;;;;;7744901;23;20020;-58
2022/07/12 04:02:09;;;;;;;10.70;6.30;;;;;;;;;;7743495;23;20095;-55
2022/07/12 04:05:10;;;;;;;11.38;6.82;;;;;;;;;;7740893;23;20024;-55
2022/07/12 04:08:11;;;;;;;11.23;6.32;;;;;;;;;;7755754;23;20515;-59
2022/07/12 04:11:11;;;;;;;10.13;6.20;;;;;;;;;;7742258;23;20012;-54
2022/07/12 04:14:12;;;;;;;10.60;6.95;;;;;;;;;;7743907;23;20028;-59
2022/07/12 04:17:13;;;;;;;12.52;6.57;;;;;;;;;;7744201;23;20023;-52
2022/07/12 04:20:13;;;;;;;10.48;6.45;;;;;;;;;;7743135;23;20023;-54
2022/07/12 04:23:14;;;;;;;10.13;6.43;;;;;;;;;;7739432;23;20020;-57
2022/07/12 04:26:14;;;;;;;10.63;6.32;;;;;;;;;;7739785;23;20020;-56
2022/07/12 04:29:21;;;;;;;11.77;6.65;;;;;;;;;;7742174;23;20055;-58
2022/07/12 04:32:22;;;;;;;11.02;6.18;;;;;;;;;;7743746;23;20398;-52
2022/07/12 04:35:22;;;;;;;11.15;6.30;;;;;;;;;;7743984;23;20091;-59
2022/07/12 04:38:23;;;;;;;12.35;7.40;;;;;;;;;;7741447;23;20016;-59
2022/07/12 04:41:23;;;;;;;13.90;6.07;;;;;;;;;;7740116;23;20087;-50
2022/07/12 04:44:24;;;;;;;11.10;6.90;;;;;;;;;;7740316;23;20098;-56
2022/07/12 04:47:25;;;;;;;12.35;7.25;;;;;;;;;;7743874;23;20385;-59
2022/07/12 04:50:26;;;;;;;14.98;7.20;;;;;;;;;;7745743;23;20109;-57
2022/07/12 04:53:27;;;;;;;11.95;6.88;;;;;;;;;;7746172;23;20016;-59
2022/07/12 04:56:28;;;;;;;10.35;6.57;;;;;;;;;;7746907;23;20094;-61
2022/07/12 04:59:29;;;;;;;14.10;7.22;;;;;;;;;;7754908;23;20034;-57
2022/07/12 05:02:29;;;;;;;8.60;6.43;;;;;;;;;;7744911;23;20139;-54
2022/07/12 05:05:30;;;;;;;11.52;6.70;;;;;;;;;;7745474;23;20018;-55
2022/07/12 05:08:30;;;;;;;12.40;7.13;;;;;;;;;;7746119;23;20024;-53
2022/07/12 05:11:32;;;;;;;11.70;6.38;;;;;;;;;;7746851;23;20378;-52
2022/07/12 05:14:32;;;;;;;10.85;6.45;;;;;;;;;;7742145;23;20519;-51
2022/07/12 05:17:33;;;;;;;14.05;6.78;;;;;;;;;;7741199;23;20070;-51
2022/07/12 05:20:34;;;;;;;12.13;7.53;;;;;;;;;;7743886;23;20036;-50
2022/07/12 05:23:34;;;;;;;13.73;7.28;;;;;;;;;;7745536;23;20146;-55
2022/07/12 05:26:35;;;;;;;9.45;7.15;;;;;;;;;;7746182;23;20091;-57
2022/07/12 05:29:35;;;;;;;13.35;7.88;;;;;;;;;;7745890;23;20059;-57
2022/07/12 05:32:36;;;;;;;14.63;7.53;;;;;;;;;;7745619;23;20046;-53
2022/07/12 05:35:37;;;;;;;12.10;8.07;;;;;;;;;;7741294;23;20016;-52
2022/07/12 05:38:37;;;;;;;12.95;9.35;;;;;;;;;;7741977;23;20450;-59
2022/07/12 05:41:38;;;;;;;14.10;9.70;;;;;;;;;;7744738;23;20012;-51
2022/07/12 05:44:38;;;;;;;15.27;10.38;;;;;;;;;;7744431;23;20087;-59
2022/07/12 05:47:39;;;;;;;13.95;9.45;;;;;;;;;;7746511;23;20078;-51
2022/07/12 05:50:40;;;;;;;17.13;10.18;;;;;;;;;;7745892;23;20020;-51
2022/07/12 05:53:40;;;;;;;17.40;10.55;;;;;;;;;;7744804;23;20012;-51
2022/07/12 05:56:41;;;;;;;14.55;10.07;;;;;;;;;;7741225;23;20038;-51
2022/07/12 05:59:41;;;;;;;17.58;10.93;;;;;;;;;;7739517;23;20131;-59
2022/07/12 06:02:42;;;;;;;13.60;9.52;;;;;;;;;;7755696;23;20099;-57
2022/07/12 06:05:43;;;;;;;16.83;10.48;;;;;;;;;;7737982;23;20016;-54
2022/07/12 06:08:44;;;;;;;16.17;9.10;;;;;;;;;;7742516;23;20099;-60
2022/07/12 06:11:44;;;;;;;12.88;8.18;;;;;;;;;;7742062;23;20079;-52
2022/07/12 06:14:45;;;;;;;14.45;8.57;;;;;;;;;;7739002;23;20020;-54
2022/07/12 06:17:45;;;;;;;13.52;8.18;;;;;;;;;;7755710;23;20099;-56
2022/07/12 06:20:46;;;;;;;14.35;7.95;;;;;;;;;;7743617;23;20658;-50
2022/07/12 06:23:46;;;;;;;12.15;7.90;;;;;;;;;;7745468;23;20065;-58
2022/07/12 06:26:47;;;;;;;12.15;7.75;;;;;;;;;;7744107;23;20113;-56
2022/07/12 06:29:48;;;;;;;10.85;7.28;;;;;;;;;;7743707;23;20894;-55
2022/07/12 06:32:48;;;;;;;12.70;8.00;;;;;;;;;;7741654;23;20013;-57
2022/07/12 06:35:49;;;;;;;11.00;7.35;;;;;;;;;;7712503;23;20091;-50
2022/07/12 06:38:50;;;;;;;10.70;7.00;;;;;;;;;;7738521;23;20020;-55
2022/07/12 06:41:50;;;;;;;10.48;6.55;;;;;;;;;;7740165;23;20095;-55
2022/07/12 06:44:51;;;;;;;10.93;7.25;;;;;;;;;;7740768;23;20478;-54
2022/07/12 06:47:52;;;;;;;9.38;6.32;;;;;;;;;;7741226;23;20523;-52
2022/07/12 06:50:53;;;;;;;;;;;;;;;;;;7741084;23;20566;-55
2022/07/12 06:53:53;;;;;;;9.02;6.03;;;;;;;;;;7738581;23;20302;-51
2022/07/12 06:56:54;;;;;;;9.55;6.30;;;;;;;;;;7741364;23;20016;-55
2022/07/12 06:59:55;;;;;;;8.77;5.55;;;;;;;;;;7741813;23;20403;-54
2022/07/12 07:02:56;;;;;;;8.63;5.03;;;;;;;;;;7743533;23;20107;-56
2022/07/12 07:05:56;;;;;;;6.82;4.63;;;;;;;;;;7743723;23;20020;-51
2022/07/12 07:08:57;;;;;;;8.60;4.43;;;;;;;;;;7744357;23;20143;-54
2022/07/12 07:11:58;;;;;;;9.40;3.70;;;;;;;;;;7744854;23;20088;-59
2022/07/12 07:14:58;;;;;;;4.93;3.20;;;;;;;;;;7742899;23;20016;-51
2022/07/12 07:17:59;;;;;;;6.47;3.38;;;;;;;;;;7743508;23;20024;-52
2022/07/12 07:20:59;;;;;;;4.72;3.10;;;;;;;;;;7743888;23;20440;-53
2022/07/12 07:24:00;;;;;;;8.10;3.45;;;;;;;;;;7742622;23;20448;-52
2022/07/12 07:27:01;;;;;;;7.22;2.92;;;;;;;;;;7745429;23;20065;-59
2022/07/12 07:33:25;;;;;;;5.45;3.10;;;;;;;;;;7744621;23;20103;-58
2022/07/12 07:36:25;;;;;;;5.90;3.20;;;;;;;;;;7744080;23;20027;-56
2022/07/12 07:39:26;;;;;;;4.75;3.28;;;;;;;;;;7744830;23;20024;-53
2022/07/12 07:42:27;;;;;;;5.50;3.05;;;;;;;;;;7745525;23;20050;-60
2022/07/12 07:45:27;;;;;;;7.47;3.15;;;;;;;;;;7743556;23;20035;-52
2022/07/12 07:48:29;;;;;;;5.80;3.15;;;;;;;;;;7744093;23;20361;-60
2022/07/12 07:51:29;;;;;;;7.82;3.03;;;;;;;;;;7744734;23;20111;-59
2022/07/12 07:54:30;;;;;;;5.63;2.28;;;;;;;;;;7743815;23;20559;-55
2022/07/12 07:57:30;;;;;;;7.40;3.00;;;;;;;;;;7744591;23;20047;-55
2022/07/12 08:00:31;;;;;;;5.95;3.00;;;;;;;;;;7744395;23;20797;-56
2022/07/12 08:03:32;;;;;;;7.30;2.65;;;;;;;;;;7744322;23;20020;-59
2022/07/12 08:06:32;;;;;;;4.53;2.00;;;;;;;;;;7741808;23;20013;-52
2022/07/12 08:09:33;;;;;;;4.57;2.00;;;;;;;;;;7742866;23;20016;-50
2022/07/12 08:12:34;;;;;;;4.97;1.90;;;;;;;;;;7744668;23;20023;-60
2022/07/12 08:15:35;;;;;;;3.10;1.70;;;;;;;;;;7743511;23;20020;-56
2022/07/12 08:18:35;;;;;;;3.08;1.73;;;;;;;;;;7744172;23;20091;-59
2022/07/12 08:21:36;;;;;;;3.78;1.63;;;;;;;;;;7745451;23;20043;-59
2022/07/12 08:24:37;;;;;;;3.53;1.60;;;;;;;;;;7745181;23;20588;-60
2022/07/12 08:27:38;;;;;;;2.83;1.65;;;;;;;;;;7744166;23;20121;-54
2022/07/12 08:30:39;;;;;;;3.88;2.00;;;;;;;;;;7743307;23;20069;-60
2022/07/12 08:33:41;;;;;;;5.03;2.13;;;;;;;;;;7741000;23;20098;-58
2022/07/12 08:36:41;;;;;;;6.55;2.45;;;;;;;;;;7741875;23;20043;-59
2022/07/12 08:39:42;;;;;;;6.10;2.78;;;;;;;;;;7740793;23;20026;-53
2022/07/12 08:42:45;;;;;;;4.40;2.70;;;;;;;;;;7743220;23;20083;-56
2022/07/12 08:45:45;;;;;;;4.32;2.63;;;;;;;;;;7748444;23;20027;-57
2022/07/12 08:48:46;;;;;;;7.57;2.67;;;;;;;;;;7739196;23;20059;-54
2022/07/12 08:51:48;;;;;;;10.50;3.15;;;;;;;;;;7739681;23;20031;-54
2022/07/12 08:54:48;;;;;;;9.43;3.08;;;;;;;;;;7739359;23;20016;-60
2022/07/12 08:57:51;;;;;;;6.80;2.63;;;;;;;;;;7742399;23;20341;-62
2022/07/12 09:00:52;;;;;;;32.42;7.03;;;;;;;;;;7741725;23;20027;-59
2022/07/12 09:04:19;;;;;;;15.27;3.20;;;;;;;;;;7742962;23;20020;-58
2022/07/12 09:07:19;;;;;;;4.65;1.80;;;;;;;;;;7737165;23;20343;-58
2022/07/12 09:10:20;;;;;;;4.38;1.77;;;;;;;;;;7741907;23;20050;-50
2022/07/12 09:13:41;;;;;;;6.32;2.38;;;;;;;;;;7743493;23;20022;-52
2022/07/12 09:16:42;;;;;;;5.00;1.95;;;;;;;;;;7741003;23;20020;-58
2022/07/12 09:19:58;;;;;;;5.83;1.70;;;;;;;;;;7743344;23;20020;-51
2022/07/12 09:23:04;;;;;;;4.45;1.70;;;;;;;;;;7747052;23;20044;-58
2022/07/12 09:26:09;;;;;;;5.88;1.73;;;;;;;;;;7746880;23;20016;-55
2022/07/12 09:29:11;;;;;;;5.68;1.85;;;;;;;;;;7745352;23;20045;-58
2022/07/12 09:38:53;;;;;;;3.90;1.67;;;;;;;;;;7742345;23;20031;-65
2022/07/12 09:41:55;;;;;;;6.07;1.70;;;;;;;;;;7742605;23;20044;-57
2022/07/12 09:44:57;;;;;;;4.53;1.88;;;;;;;;;;7752091;23;20505;-60
2022/07/12 09:47:59;;;;;;;4.00;1.70;;;;;;;;;;7742272;23;20050;-63
2022/07/12 09:51:02;;;;;;;4.38;1.63;;;;;;;;;;7740563;23;20024;-63
2022/07/12 09:54:04;;;;;;;4.45;1.70;;;;;;;;;;7741294;23;20086;-63
2022/07/12 09:57:05;;;;;;;;;;;;;;;;;;7742784;23;20024;-64
2022/07/12 10:00:09;;;;;;;6.45;1.90;;;;;;;;;;7739668;23;20010;-57
2022/07/12 10:03:12;;;;;;;5.00;2.10;;;;;;;;;;7741017;23;20046;-55
2022/07/12 10:06:20;;;;;;;8.93;2.75;;;;;;;;;;7741325;23;20161;-60
2022/07/12 10:09:21;;;;;;;4.30;2.00;;;;;;;;;;7753810;23;20026;-57
2022/07/12 10:12:23;;;;;;;5.40;1.70;;;;;;;;;;7742884;23;20123;-62
2022/07/12 10:15:26;;;;;;;3.58;1.20;;;;;;;;;;7742585;23;20020;-60
2022/07/12 10:18:28;;;;;;;5.13;1.30;;;;;;;;;;7741965;23;20030;-60
2022/07/12 10:21:28;;;;;;;4.18;1.17;;;;;;;;;;7741545;23;20016;-53
2022/07/12 10:24:41;;;;;;;5.05;1.77;;;;;;;;;;7742853;23;20061;-59
2022/07/12 10:27:41;;;;;;;10.18;2.42;;;;;;;;;;7741326;23;20070;-57
2022/07/12 10:30:43;;;;;;;3.92;1.70;;;;;;;;;;7742994;23;20360;-59
2022/07/12 10:33:43;;;;;;;3.92;1.98;;;;;;;;;;7740701;23;20016;-59
2022/07/12 10:36:56;;;;;;;3.88;1.70;;;;;;;;;;7742026;23;20464;-58
2022/07/12 10:40:20;;;;;;;5.45;2.13;;;;;;;;;;7739598;23;20020;-60
2022/07/12 10:47:00;;;;;;;4.63;1.30;;;;;;;;;;7738625;23;20027;-58
2022/07/12 10:50:01;;;;;;;3.85;1.60;;;;;;;;;;7741913;23;20138;-56
2022/07/12 10:53:40;;;;;;;4.45;1.40;;;;;;;;;;7742403;23;20012;-54
2022/07/12 10:56:56;;;;;;;3.42;1.55;;;;;;;;;;7742579;23;20048;-61
2022/07/12 10:59:57;;;;;;;3.55;1.38;;;;;;;;;;7740689;23;20422;-58
2022/07/12 11:03:02;;;;;;;3.42;1.55;;;;;;;;;;7743403;23;20095;-54
2022/07/12 11:06:03;;;;;;;4.10;1.67;;;;;;;;;;7743794;23;20091;-57
2022/07/12 11:09:07;;;;;;;3.30;1.58;;;;;;;;;;7743189;23;20146;-55
2022/07/12 11:12:08;;;;;;;3.75;1.80;;;;;;;;;;7745031;23;20099;-55
2022/07/12 11:15:09;;;;;;;3.97;1.80;;;;;;;;;;7744869;23;20048;-62
2022/07/12 11:18:27;;;;;;;5.20;1.77;;;;;;;;;;7744059;23;20109;-52
2022/07/12 11:21:28;;;;;;;4.55;1.98;;;;;;;;;;7737865;23;20412;-64
2022/07/12 11:24:34;;;;;;;3.88;1.60;;;;;;;;;;7741996;23;20151;-58
2022/07/12 11:27:36;;;;;;;4.22;1.70;;;;;;;;;;7741869;23;20042;-57
2022/07/12 11:30:36;;;;;;;2.90;1.40;;;;;;;;;;7740742;23;20023;-57
2022/07/12 11:33:39;;;;;;;5.22;1.90;;;;;;;;;;7743551;23;20102;-61
2022/07/12 11:36:40;;;;;;;3.90;1.63;;;;;;;;;;7744405;23;20444;-55
2022/07/12 11:39:40;;;;;;;5.78;2.00;;;;;;;;;;7743922;23;20030;-57
2022/07/12 11:42:55;;;;;;;4.85;1.77;;;;;;;;;;7744795;23;20012;-56
2022/07/12 11:45:57;;;;;;;5.35;1.80;;;;;;;;;;7742200;23;20249;-63
2022/07/12 11:48:57;;;;;;;4.95;1.63;;;;;;;;;;7748994;23;20012;-62
2022/07/12 11:51:58;;;;;;;3.03;1.60;;;;;;;;;;7744514;23;20012;-62
2022/07/12 11:55:06;;;;;;;11.73;1.87;;;;;;;;;;7744157;23;20098;-63
2022/07/12 11:58:07;;;;;;;4.55;1.40;;;;;;;;;;7745122;23;20036;-63
2022/07/12 12:01:14;;;;;;;3.60;1.53;;;;;;;;;;7745876;23;20087;-62
2022/07/12 12:04:14;;;;;;;3.05;1.40;;;;;;;;;;7744557;23;20095;-61
2022/07/12 12:07:19;;;;;;;2.93;1.70;;;;;;;;;;7744330;23;20440;-57
2022/07/12 12:10:19;;;;;;;2.47;1.33;;;;;;;;;;7745099;23;20040;-62
2022/07/12 12:13:20;;;;;;;2.80;1.43;;;;;;;;;;7745054;23;20107;-58
2022/07/12 12:16:21;;;;;;;7.80;1.60;;;;;;;;;;7744785;23;20012;-61
2022/07/12 12:19:21;;;;;;;3.13;1.67;;;;;;;;;;7745455;23;20052;-53
2022/07/12 12:22:34;;;;;;;2.70;1.70;;;;;;;;;;7743692;23;20024;-58
2022/07/12 12:25:34;;;;;;;3.95;1.40;;;;;;;;;;7744223;23;20030;-57
2022/07/12 12:28:50;;;;;;;3.30;1.47;;;;;;;;;;7736662;23;20400;-60
2022/07/12 12:31:58;;;;;;;3.25;1.20;;;;;;;;;;7735578;23;20102;-59
2022/07/12 12:35:09;;;;;;;2.50;1.40;;;;;;;;;;7733822;23;20103;-63
2022/07/12 12:38:14;;;;;;;3.55;1.50;;;;;;;;;;7733179;23;20019;-60
2022/07/12 12:41:16;;;;;;;2.80;1.23;;;;;;;;;;7735353;23;20396;-58
2022/07/12 12:44:17;;;;;;;4.18;1.45;;;;;;;;;;7732369;23;20028;-61
2022/07/12 12:47:36;;;;;;;3.55;1.40;;;;;;;;;;7731604;23;20044;-61
2022/07/12 12:50:37;;;;;;;4.13;1.40;;;;;;;;;;7733428;23;20024;-58
2022/07/12 12:53:39;;;;;;;4.20;1.43;;;;;;;;;;7733500;23;20562;-64
2022/07/12 12:56:40;;;;;;;3.40;1.40;;;;;;;;;;7733720;23;20482;-57
2022/07/12 12:59:41;;;;;;;6.38;1.65;;;;;;;;;;7733874;23;20028;-62
2022/07/12 13:02:42;;;;;;;2.93;1.27;;;;;;;;;;7748800;23;20020;-60
2022/07/12 13:05:43;;;;;;;3.35;1.30;;;;;;;;;;7736001;23;20036;-61
2022/07/12 13:08:44;;;;;;;2.40;1.37;;;;;;;;;;7734634;23;20016;-58
2022/07/12 13:11:44;;;;;;;3.07;1.30;;;;;;;;;;7738148;23;20119;-57
2022/07/12 13:14:45;;;;;;;5.07;1.50;;;;;;;;;;7737281;23;20531;-58
2022/07/12 13:17:45;;;;;;;3.22;1.48;;;;;;;;;;7735123;23;20048;-56
2022/07/12 13:20:46;;;;;;;3.83;1.73;;;;;;;;;;7735306;23;20034;-58
2022/07/12 13:23:47;;;;;;;2.20;1.17;;;;;;;;;;7733427;23;20693;-63
2022/07/12 13:26:47;;;;;;;4.00;1.58;;;;;;;;;;7733500;23;20856;-57
2022/07/12 13:29:48;;;;;;;3.80;1.50;;;;;;;;;;7733969;23;20123;-58
2022/07/12 13:32:48;;;;;;;2.90;1.60;;;;;;;;;;7732087;23;20024;-60
2022/07/12 13:35:49;;;;;;;3.30;1.30;;;;;;;;;;7730394;23;20527;-59
2022/07/12 13:38:50;;;;;;;3.17;1.55;;;;;;;;;;7729444;23;20034;-57
2022/07/12 13:41:50;;;;;;;3.40;1.40;;;;;;;;;;7731228;23;20020;-63
2022/07/12 13:44:52;;;;;;;2.60;1.40;;;;;;;;;;7729977;23;20022;-58
2022/07/12 13:47:53;;;;;;;3.10;1.33;;;;;;;;;;7729246;23;20589;-62
2022/07/12 13:50:53;;;;;;;1.77;1.10;;;;;;;;;;7728696;23;20023;-56
2022/07/12 13:53:54;;;;;;;2.90;1.33;;;;;;;;;;7730080;23;20107;-58
2022/07/12 13:56:54;;;;;;;5.47;1.33;;;;;;;;;;7732600;23;20016;-60
2022/07/12 13:59:57;;;;;;;2.87;1.47;;;;;;;;;;7733382;23;20044;-63
2022/07/12 14:02:58;;;;;;;3.33;1.40;;;;;;;;;;7733594;23;20047;-62
2022/07/12 14:05:58;;;;;;;3.70;1.53;;;;;;;;;;7730135;23;20035;-61
2022/07/12 14:08:59;;;;;;;3.20;1.57;;;;;;;;;;7730178;23;20099;-57
2022/07/12 14:12:01;;;;;;;5.70;1.50;;;;;;;;;;7731687;23;20016;-60
2022/07/12 14:18:12;;;;;;;3.13;1.35;;;;;;;;;;7728265;23;20032;-63
2022/07/12 14:21:13;;;;;;;2.63;1.33;;;;;;;;;;7729944;23;20683;-57
2022/07/12 14:24:14;;;;;;;3.17;1.30;;;;;;;;;;7730494;23;20020;-60
2022/07/12 14:27:15;;;;;;;10.75;1.17;;;;;;;;;;7728886;23;20099;-62
2022/07/12 14:30:15;;;;;;;3.53;1.37;;;;;;;;;;7734345;23;20359;-63
2022/07/12 14:33:16;;;;;;;3.43;1.30;;;;;;;;;;7734312;23;20126;-63
2022/07/12 14:36:16;;;;;;;2.40;1.20;;;;;;;;;;7733280;23;20127;-60
2022/07/12 14:39:17;;;;;;;2.70;1.30;;;;;;;;;;7735224;23;20070;-62
2022/07/12 14:42:18;;;;;;;3.63;1.20;;;;;;;;;;7736865;23;20020;-63
2022/07/12 14:45:18;;;;;;;2.60;1.10;;;;;;;;;;7730930;23;20483;-61
2022/07/12 14:48:19;;;;;;;4.33;1.30;;;;;;;;;;7732175;23;20024;-62
2022/07/12 14:51:20;;;;;;;2.17;1.17;;;;;;;;;;7735530;23;20098;-60
2022/07/12 14:54:21;;;;;;;3.50;1.20;;;;;;;;;;7727682;23;20381;-63
2022/07/12 14:57:22;;;;;;;3.03;1.50;;;;;;;;;;7727235;23;20034;-64
2022/07/12 15:00:23;;;;;;;2.73;1.20;;;;;;;;;;7729666;23;20126;-57
2022/07/12 15:03:23;;;;;;;2.90;1.50;;;;;;;;;;7728573;23;20016;-63
2022/07/12 15:06:26;;;;;;;4.23;1.93;;;;;;;;;;7726778;23;20439;-63
2022/07/12 15:09:27;;;;;;;6.38;1.90;;;;;;;;;;7729943;23;20422;-59
2022/07/12 15:12:28;;;;;;;8.70;2.57;;;;;;;;;;7730030;23;20040;-58
2022/07/12 15:15:29;;;;;;;5.07;1.98;;;;;;;;;;7740401;23;20028;-58
2022/07/12 15:18:30;;;;;;;7.17;2.33;;;;;;;;;;7731979;23;20403;-58
2022/07/12 15:21:30;;;;;;;5.90;2.30;;;;;;;;;;7734257;23;20069;-60
2022/07/12 15:24:31;;;;;;;5.50;2.17;;;;;;;;;;7735891;23;20020;-58
2022/07/12 15:27:32;;;;;;;3.50;1.90;;;;;;;;;;7733889;23;20079;-59
2022/07/12 15:30:33;;;;;;;5.27;2.47;;;;;;;;;;7736246;23;20020;-56
2022/07/12 15:33:34;;;;;;;5.78;2.40;;;;;;;;;;7735750;23;20012;-50
2022/07/12 15:36:35;;;;;;;9.77;2.85;;;;;;;;;;7732630;23;20105;-65
2022/07/12 15:39:35;;;;;;;5.80;2.43;;;;;;;;;;7733367;23;20371;-65
2022/07/12 15:42:36;;;;;;;4.77;2.07;;;;;;;;;;7736420;23;20028;-57
2022/07/12 15:45:37;;;;;;;5.80;2.53;;;;;;;;;;7743015;23;20020;-55
2022/07/12 15:48:39;;;;;;;6.53;3.28;;;;;;;;;;7734008;23;20055;-58
2022/07/12 15:54:59;;;;;;;6.38;2.80;;;;;;;;;;7734718;23;20016;-54
2022/07/12 15:58:00;;;;;;;5.67;2.50;;;;;;;;;;7733997;23;20020;-58
2022/07/12 16:01:01;;;;;;;5.23;1.90;;;;;;;;;;7734932;23;20486;-59
2022/07/12 16:04:02;;;;;;;4.95;2.05;;;;;;;;;;7735886;23;20028;-59
2022/07/12 16:07:02;;;;;;;5.67;2.20;;;;;;;;;;7731231;23;20348;-58
2022/07/12 16:10:03;;;;;;;4.77;2.10;;;;;;;;;;7734590;23;20137;-58
2022/07/12 16:13:04;;;;;;;5.60;1.90;;;;;;;;;;7733469;23;20020;-58
2022/07/12 16:16:05;;;;;;;7.50;3.70;;;;;;;;;;7732372;23;20027;-57
2022/07/12 16:19:06;;;;;;;4.97;2.00;;;;;;;;;;7731921;23;20028;-57
2022/07/12 16:22:06;;;;;;;9.83;2.10;;;;;;;;;;7733019;23;20436;-59
2022/07/12 16:25:07;;;;;;;4.23;1.70;;;;;;;;;;7733893;23;20487;-58
2022/07/12 16:28:08;;;;;;;4.53;1.90;;;;;;;;;;7733323;23;20016;-57
2022/07/12 16:31:09;;;;;;;4.47;2.13;;;;;;;;;;7734967;23;20016;-60
2022/07/12 16:34:09;;;;;;;5.20;2.00;;;;;;;;;;7734155;23;20115;-57
2022/07/12 16:37:10;;;;;;;4.23;1.83;;;;;;;;;;7730610;23;20035;-56
2022/07/12 16:40:11;;;;;;;7.27;2.53;;;;;;;;;;7704964;23;20020;-62
2022/07/12 16:43:12;;;;;;;3.17;1.20;;;;;;;;;;7735498;23;20020;-63
2022/07/12 16:46:12;;;;;;;3.63;1.70;;;;;;;;;;7736027;23;20051;-60
2022/07/12 16:49:13;;;;;;;3.57;1.30;;;;;;;;;;7735544;23;20035;-54
2022/07/12 16:52:13;;;;;;;5.23;1.60;;;;;;;;;;7735696;23;20028;-53
2022/07/12 16:55:14;;;;;;;4.00;1.40;;;;;;;;;;7736705;23;20020;-52
2022/07/12 16:58:16;;;;;;;3.03;1.17;;;;;;;;;;7735610;23;20035;-62
2022/07/12 17:01:18;;;;;;;3.22;1.42;;;;;;;;;;7734845;23;20051;-65
2022/07/12 17:04:18;;;;;;;;;;;;;;;;;;7734673;23;20020;-61
2022/07/12 17:07:19;;;;;;;7.13;1.60;;;;;;;;;;7733251;23;19927;-62
2022/07/12 17:10:19;;;;;;;2.40;1.40;;;;;;;;;;7737575;23;20110;-59
2022/07/12 17:13:20;;;;;;;6.20;1.77;;;;;;;;;;7736634;23;20074;-53
2022/07/12 17:16:21;;;;;;;4.00;1.70;;;;;;;;;;7736200;23;20142;-57
2022/07/12 17:19:22;;;;;;;2.40;1.40;;;;;;;;;;7735948;23;20019;-52
2022/07/12 17:22:23;;;;;;;4.00;1.70;;;;;;;;;;7736163;23;20797;-50
2022/07/12 17:25:23;;;;;;;3.77;1.80;;;;;;;;;;7736653;23;20099;-51
2022/07/12 17:28:24;;;;;;;5.17;2.30;;;;;;;;;;7733767;23;20023;-53
2022/07/12 17:31:25;;;;;;;5.03;1.70;;;;;;;;;;7736348;23;20457;-48
2022/07/12 17:34:26;;;;;;;4.27;1.77;;;;;;;;;;7735753;23;20044;-51
2022/07/12 17:37:27;;;;;;;2.97;1.30;;;;;;;;;;7734391;23;20047;-50
2022/07/12 17:40:28;;;;;;;4.17;1.53;;;;;;;;;;7735047;23;20099;-45
2022/07/12 17:43:28;;;;;;;4.45;1.95;;;;;;;;;;7735036;23;20054;-53
2022/07/12 17:46:30;;;;;;;3.70;1.60;;;;;;;;;;7733909;23;20016;-48
2022/07/12 17:49:31;;;;;;;4.10;1.70;;;;;;;;;;7734489;23;20063;-52
2022/07/12 17:52:32;;;;;;;3.92;2.00;;;;;;;;;;7721871;23;20344;-67
2022/07/12 17:55:32;;;;;;;4.47;1.90;;;;;;;;;;7735772;23;20024;-51
2022/07/12 17:58:39;;;;;;;3.63;1.40;;;;;;;;;;7730039;23;20020;-53
2022/07/12 18:01:40;;;;;;;3.42;1.58;;;;;;;;;;7733084;23;20109;-54
2022/07/12 18:04:40;;;;;;;5.37;1.90;;;;;;;;;;7732292;23;20020;-59
2022/07/12 18:07:41;;;;;;;4.40;1.67;;;;;;;;;;7729629;23;20042;-55
2022/07/12 18:10:41;;;;;;;3.80;1.60;;;;;;;;;;7735438;23;20016;-49
2022/07/12 18:20:20;;;;;;;3.78;1.60;;;;;;;;;;7733964;23;20024;-47
2022/07/12 18:23:21;;;;;;;2.97;1.10;;;;;;;;;;7732855;23;20063;-50
2022/07/12 18:26:22;;;;;;;4.43;1.43;;;;;;;;;;7734622;23;20522;-51
2022/07/12 18:29:23;;;;;;;2.27;1.30;;;;;;;;;;7733108;23;20440;-55
2022/07/12 18:32:24;;;;;;;3.08;1.50;;;;;;;;;;7733461;23;20047;-54
2022/07/12 18:35:24;;;;;;;3.27;1.57;;;;;;;;;;7734041;23;20023;-53